Terminal Aerodrome Forecast
Issued by NWS Wichita, KS

Home | Current Version | Previous Version | Text Only | Print | Product List | Glossary On
Versions: 1 2 3 4 5 6 7 8 9 10 11 12 13
000
FTUS43 KICT 271142
TAFICT
TAF
KICT 271142Z 2712/2812 11006KT P6SM SKC
     FM271500 15010KT P6SM BKN020
     FM271700 17012KT P6SM OVC015
     FM280100 16012KT 6SM BR OVC008=

USA.gov is the U.S. government's official web portal to all federal, state and local government web resources and services.